Time;durP1;ratioP1;P1;durP2;ratioP2;P2;SDS_P1;SDS_P2;PMS_P1;PMS_P2;Temp;Humidity;BMP_temperature;BMP_pressure;BME280_temperature;BME280_humidity;BME280_pressure;Samples;Min_cycle;Max_cycle;Signal;HPM_P1;HPM_P2
2022/11/04 00:01:52;;;;;;;12.65;11.35;;;12.10;99.90;;;;;;5121791;27;20046;-72
2022/11/04 00:04:20;;;;;;;12.60;11.32;;;11.40;99.90;;;;;;5139113;27;20031;-75
2022/11/04 00:06:46;;;;;;;25.45;18.40;;;11.40;99.90;;;;;;5107501;27;20035;-75
2022/11/04 00:09:23;;;;;;;13.18;11.68;;;11.40;99.90;;;;;;5139696;27;20057;-74
2022/11/04 00:14:34;;;;;;;14.80;13.13;;;11.30;99.90;;;;;;5142424;27;20047;-73
2022/11/04 00:17:20;;;;;;;12.68;10.38;;;11.30;99.90;;;;;;5124692;27;20729;-70
2022/11/04 00:33:48;;;;;;;2.80;2.60;;;11.10;99.90;;;;;;5134956;27;20796;-74
2022/11/04 00:36:14;;;;;;;2.83;1.67;;;11.10;99.90;;;;;;5137392;27;20053;-75
2022/11/04 00:38:39;;;;;;;2.10;1.65;;;11.00;99.90;;;;;;5129953;27;20077;-73
2022/11/04 00:41:24;;;;;;;1.00;0.90;;;11.40;99.90;;;;;;5128708;27;20067;-74
2022/11/04 00:43:51;;;;;;;1.77;1.08;;;10.90;99.90;;;;;;5129494;27;20075;-73
2022/11/04 00:46:17;;;;;;;1.20;0.80;;;10.80;99.90;;;;;;5128441;27;20046;-73
2022/11/04 00:48:43;;;;;;;3.70;0.77;;;10.80;99.90;;;;;;5128636;27;20450;-73
2022/11/04 00:51:08;;;;;;;2.00;0.90;;;10.80;99.90;;;;;;5112986;27;20046;-74
2022/11/04 00:53:34;;;;;;;1.30;0.35;;;10.60;99.90;;;;;;5137996;27;20065;-74
2022/11/04 00:55:59;;;;;;;1.95;0.50;;;10.60;99.90;;;;;;5129176;27;20039;-73
2022/11/04 00:58:27;;;;;;;2.10;0.22;;;10.60;99.90;;;;;;5138887;27;20100;-73
2022/11/04 01:00:52;;;;;;;1.75;0.30;;;11.40;99.90;;;;;;5112463;27;20081;-72
2022/11/04 01:03:18;;;;;;;3.28;0.30;;;10.50;99.90;;;;;;5136687;27;20461;-74
2022/11/04 01:05:43;;;;;;;2.53;0.30;;;10.50;99.90;;;;;;5140239;27;20039;-74
2022/11/04 01:08:09;;;;;;;2.15;0.40;;;9.40;99.90;;;;;;5129744;27;20038;-73
2022/11/04 01:10:43;;;;;;;1.85;0.20;;;10.50;99.90;;;;;;5128471;27;20046;-74
2022/11/04 01:13:09;;;;;;;2.60;0.38;;;10.40;99.90;;;;;;5143586;27;20501;-74
2022/11/04 01:15:36;;;;;;;1.60;0.10;;;10.50;99.90;;;;;;5131275;27;20486;-73
2022/11/04 01:18:02;;;;;;;1.77;0.40;;;10.40;99.90;;;;;;5140773;27;20046;-73
2022/11/04 01:20:27;;;;;;;2.60;0.55;;;10.50;99.90;;;;;;5126981;27;20389;-73
2022/11/04 01:22:53;;;;;;;0.40;0.10;;;10.40;99.90;;;;;;5144429;27;20086;-73
2022/11/04 01:25:19;;;;;;;1.20;0.43;;;10.40;99.90;;;;;;5141742;27;20111;-74
2022/11/04 01:27:44;;;;;;;1.10;0.10;;;10.40;99.90;;;;;;5145822;27;20049;-74
2022/11/04 01:30:10;;;;;;;1.90;0.15;;;10.40;99.90;;;;;;5147736;27;20055;-73
2022/11/04 01:32:36;;;;;;;4.55;0.65;;;10.40;99.90;;;;;;5146333;27;20102;-72
2022/11/04 01:35:01;;;;;;;1.95;0.30;;;10.40;99.90;;;;;;5112968;27;20046;-74
2022/11/04 01:37:27;;;;;;;0.95;0.32;;;10.30;99.90;;;;;;5147200;27;20448;-73
2022/11/04 01:39:53;;;;;;;2.00;0.13;;;10.30;99.90;;;;;;5149921;27;20049;-72
2022/11/04 01:42:21;;;;;;;1.30;0.10;;;10.40;99.90;;;;;;5111168;27;20465;-73
2022/11/04 01:44:50;;;;;;;2.97;0.30;;;10.40;99.90;;;;;;5140866;27;20520;-73
2022/11/04 01:47:26;;;;;;;3.30;0.10;;;10.40;99.90;;;;;;5128339;27;20042;-74
2022/11/04 01:50:09;;;;;;;2.20;0.20;;;10.40;99.90;;;;;;5136285;27;20489;-72
2022/11/04 01:53:08;;;;;;;2.90;0.20;;;10.40;99.90;;;;;;5113057;27;20058;-72
2022/11/04 01:55:39;;;;;;;4.47;0.40;;;10.40;99.90;;;;;;5128177;27;20060;-72
2022/11/04 01:58:17;;;;;;;2.47;0.10;;;10.40;99.90;;;;;;5146667;27;20038;-74
2022/11/04 02:00:44;;;;;;;3.22;0.20;;;10.40;99.90;;;;;;5128611;27;20049;-73
2022/11/04 02:03:30;;;;;;;3.13;0.63;;;10.40;99.90;;;;;;5142180;27;20045;-74
2022/11/04 02:05:57;;;;;;;2.63;0.10;;;10.40;99.90;;;;;;5130314;27;20038;-74
2022/11/04 02:08:23;;;;;;;3.95;0.68;;;11.10;99.90;;;;;;5117603;27;20052;-73
2022/11/04 02:11:01;;;;;;;5.85;0.40;;;10.40;99.90;;;;;;5132261;27;20068;-74
2022/11/04 02:13:29;;;;;;;9.65;0.60;;;10.40;99.90;;;;;;5131845;27;20160;-73
2022/11/04 02:16:22;;;;;;;2.00;0.20;;;10.40;99.90;;;;;;5110310;27;20046;-73
2022/11/04 02:19:01;;;;;;;4.85;0.85;;;10.40;99.90;;;;;;5113304;27;20047;-72
2022/11/04 02:21:52;;;;;;;8.98;0.50;;;10.30;99.90;;;;;;5129639;27;20042;-73
2022/11/04 02:24:18;;;;;;;4.28;0.30;;;10.30;99.90;;;;;;5130848;27;20043;-73
2022/11/04 02:27:20;;;;;;;2.67;0.30;;;10.30;99.90;;;;;;5129749;27;20099;-73
2022/11/04 02:30:05;;;;;;;7.50;0.40;;;10.30;99.90;;;;;;5129399;27;20038;-73
2022/11/04 02:32:37;;;;;;;5.82;1.10;;;10.30;99.90;;;;;;5142124;27;20485;-74
2022/11/04 02:35:11;;;;;;;4.38;0.30;;;10.30;99.90;;;;;;5122310;27;20055;-73
2022/11/04 02:37:44;;;;;;;6.13;0.35;;;10.30;99.90;;;;;;5130689;27;20501;-73
2022/11/04 02:40:21;;;;;;;1.65;0.47;;;10.30;99.90;;;;;;5144959;27;20050;-74
2022/11/04 02:43:01;;;;;;;3.65;0.20;;;10.30;99.90;;;;;;5125952;27;20043;-73
2022/11/04 02:45:49;;;;;;;5.05;0.47;;;10.30;99.90;;;;;;5144083;27;20037;-73
2022/11/04 02:48:26;;;;;;;3.65;0.35;;;10.30;99.90;;;;;;5140794;27;20062;-74
2022/11/04 02:51:06;;;;;;;8.27;0.70;;;10.30;99.90;;;;;;5125870;27;20083;-74
2022/11/04 02:53:44;;;;;;;6.20;0.50;;;10.30;99.90;;;;;;5124585;27;20050;-73
2022/11/04 02:56:12;;;;;;;6.18;0.47;;;10.30;99.90;;;;;;5132589;27;20054;-73
2022/11/04 02:58:43;;;;;;;5.40;0.73;;;10.30;99.90;;;;;;5108854;27;20409;-72
2022/11/04 03:01:13;;;;;;;2.60;0.30;;;10.20;99.90;;;;;;5145407;27;20035;-73
2022/11/04 03:03:47;;;;;;;4.78;0.32;;;10.20;99.90;;;;;;5122905;27;20393;-73
2022/11/04 03:06:16;;;;;;;4.10;0.45;;;10.20;99.90;;;;;;5128088;27;20079;-74
2022/11/04 03:08:48;;;;;;;6.80;0.70;;;10.20;99.90;;;;;;5125325;27;20140;-74
2022/11/04 03:11:18;;;;;;;7.43;0.70;;;10.20;99.90;;;;;;5144645;27;20050;-73
2022/11/04 03:14:00;;;;;;;4.57;0.55;;;10.70;99.90;;;;;;5146168;27;20034;-71
2022/11/04 03:16:39;;;;;;;5.20;0.47;;;10.20;99.90;;;;;;5111666;27;20035;-72
2022/11/04 03:19:12;;;;;;;12.52;1.25;;;10.20;99.90;;;;;;5139393;27;20055;-72
2022/11/04 03:21:44;;;;;;;6.57;0.57;;;10.20;99.90;;;;;;5129705;27;20042;-73
2022/11/04 03:24:10;;;;;;;2.20;0.30;;;10.20;99.90;;;;;;5144871;27;20518;-73
2022/11/04 03:26:54;;;;;;;4.75;0.55;;;10.10;99.90;;;;;;5133077;27;20038;-73
2022/11/04 03:29:31;;;;;;;5.55;0.75;;;10.20;99.90;;;;;;5145043;27;20054;-73
2022/11/04 03:31:59;;;;;;;8.00;0.70;;;10.20;99.90;;;;;;5139965;27;20034;-73
2022/11/04 03:34:25;;;;;;;4.15;0.65;;;10.20;99.90;;;;;;5112655;27;20537;-72
2022/11/04 03:36:50;;;;;;;5.20;0.40;;;11.10;99.90;;;;;;5123532;27;20474;-72
2022/11/04 03:39:16;;;;;;;4.28;0.47;;;10.40;99.90;;;;;;5122679;27;20043;-73
2022/11/04 03:41:48;;;;;;;3.20;0.28;;;10.20;99.90;;;;;;5144216;27;20501;-73
2022/11/04 03:44:13;;;;;;;3.83;0.40;;;10.20;99.90;;;;;;5126759;27;20401;-73
2022/11/04 03:46:39;;;;;;;3.42;0.73;;;10.40;99.90;;;;;;5123658;27;20034;-73
2022/11/04 03:49:07;;;;;;;3.50;0.50;;;10.20;99.90;;;;;;5128286;27;20435;-73
2022/11/04 03:51:32;;;;;;;5.28;0.60;;;10.30;99.90;;;;;;5124165;27;20034;-73
2022/11/04 03:53:58;;;;;;;2.88;0.60;;;11.50;99.90;;;;;;5146071;27;20103;-74
2022/11/04 03:56:59;;;;;;;3.65;0.63;;;10.20;99.90;;;;;;5142553;27;20043;-74
2022/11/04 03:59:58;;;;;;;7.07;1.25;;;10.20;99.90;;;;;;5131311;27;20587;-74
2022/11/04 04:02:50;;;;;;;5.35;0.52;;;10.30;99.90;;;;;;5116807;27;20050;-74
2022/11/04 04:05:30;;;;;;;2.47;0.68;;;10.20;99.90;;;;;;5139927;27;20039;-74
2022/11/04 04:08:17;;;;;;;7.38;1.17;;;10.30;99.90;;;;;;5124270;27;20062;-73
2022/11/04 04:11:15;;;;;;;5.25;0.60;;;10.30;99.90;;;;;;5118268;27;20051;-73
2022/11/04 04:13:56;;;;;;;0.88;0.30;;;10.20;99.90;;;;;;5140363;27;20121;-72
2022/11/04 04:16:33;;;;;;;4.55;0.52;;;10.30;99.90;;;;;;5120527;27;20081;-73
2022/11/04 04:19:12;;;;;;;2.70;0.50;;;10.20;99.90;;;;;;5138038;27;20039;-73
2022/11/04 04:21:52;;;;;;;6.07;0.50;;;10.20;99.90;;;;;;5135589;27;20042;-73
2022/11/04 04:29:51;;;;;;;6.55;0.50;;;10.10;99.90;;;;;;5118912;27;20047;-73
2022/11/04 04:32:19;;;;;;;3.50;0.40;;;10.10;99.90;;;;;;5125039;27;20171;-73
2022/11/04 04:34:44;;;;;;;2.40;0.30;;;10.00;99.90;;;;;;5127720;27;20043;-73
2022/11/04 04:37:21;;;;;;;1.83;0.20;;;10.00;99.90;;;;;;5124825;27;20035;-72
2022/11/04 04:45:36;;;;;;;2.78;0.38;;;9.90;99.90;;;;;;5148774;27;20133;-72
2022/11/04 04:48:02;;;;;;;5.32;0.17;;;9.80;99.90;;;;;;5129460;27;20054;-72
2022/11/04 04:50:34;;;;;;;3.13;0.20;;;9.80;99.90;;;;;;5144293;27;20035;-73
2022/11/04 04:53:01;;;;;;;2.20;0.30;;;9.80;99.90;;;;;;5145836;27;20047;-72
2022/11/04 04:55:28;;;;;;;2.38;0.30;;;9.80;99.90;;;;;;5140349;27;20088;-73
2022/11/04 04:57:54;;;;;;;1.92;0.25;;;9.80;99.90;;;;;;5141364;27;20049;-73
2022/11/04 05:00:20;;;;;;;2.78;0.35;;;9.80;99.90;;;;;;5118513;27;20121;-73
2022/11/04 05:02:46;;;;;;;1.13;0.10;;;9.70;99.90;;;;;;5134419;27;20478;-73
2022/11/04 05:05:12;;;;;;;2.05;0.28;;;9.70;99.90;;;;;;5141647;27;20121;-73
2022/11/04 05:07:39;;;;;;;3.67;0.30;;;9.70;99.90;;;;;;5141712;27;20152;-71
2022/11/04 05:10:05;;;;;;;3.63;0.28;;;9.70;99.90;;;;;;5132624;27;20394;-73
2022/11/04 05:15:18;;;;;;;1.52;0.20;;;9.60;99.90;;;;;;5132921;27;20050;-72
2022/11/04 05:17:44;;;;;;;0.98;0.30;;;9.70;99.90;;;;;;5133857;27;20038;-72
2022/11/04 05:20:10;;;;;;;5.00;0.30;;;10.00;99.90;;;;;;5142199;27;20121;-72
2022/11/04 05:22:36;;;;;;;1.70;0.20;;;9.60;99.90;;;;;;5131902;27;20057;-73
2022/11/04 05:25:02;;;;;;;7.05;0.50;;;9.90;99.90;;;;;;5142398;27;20035;-73
2022/11/04 05:27:27;;;;;;;4.65;0.52;;;9.60;99.90;;;;;;5115669;27;20063;-72
2022/11/04 05:29:53;;;;;;;4.18;0.60;;;9.60;99.90;;;;;;5119021;27;20035;-72
2022/11/04 05:32:18;;;;;;;0.77;0.10;;;9.50;99.90;;;;;;5142196;27;20532;-73
2022/11/04 05:34:44;;;;;;;4.30;0.40;;;9.50;99.90;;;;;;5140102;27;20051;-73
2022/11/04 05:37:10;;;;;;;3.08;0.30;;;9.10;99.90;;;;;;5144336;27;20038;-73
2022/11/04 05:39:35;;;;;;;5.88;0.43;;;9.50;99.90;;;;;;5141368;27;20138;-72
2022/11/04 05:42:01;;;;;;;1.95;0.20;;;9.50;99.90;;;;;;5113146;27;20039;-72
2022/11/04 05:44:26;;;;;;;2.47;0.68;;;9.40;99.90;;;;;;5141227;27;20512;-72
2022/11/04 05:46:52;;;;;;;3.50;0.30;;;9.80;99.90;;;;;;5140503;27;20035;-73
2022/11/04 05:49:18;;;;;;;4.50;0.38;;;9.60;99.90;;;;;;5141314;27;20121;-72
2022/11/04 05:51:43;;;;;;;2.85;0.32;;;9.50;99.90;;;;;;5131412;27;20069;-72
2022/11/04 05:54:09;;;;;;;2.92;0.20;;;9.40;99.90;;;;;;5131897;27;20043;-73
2022/11/04 05:56:35;;;;;;;2.72;0.50;;;8.60;99.90;;;;;;5140470;27;20038;-74
2022/11/04 05:59:00;;;;;;;3.05;0.40;;;9.40;99.90;;;;;;5132863;27;20767;-72
2022/11/04 06:01:38;;;;;;;6.70;0.90;;;9.60;99.90;;;;;;5107277;27;20123;-73
2022/11/04 06:04:05;;;;;;;5.15;0.70;;;9.30;99.90;;;;;;5120229;27;20077;-73
2022/11/04 06:06:33;;;;;;;6.28;0.63;;;9.90;99.90;;;;;;5125141;27;20042;-74
2022/11/04 06:08:59;;;;;;;1.58;0.40;;;9.30;99.90;;;;;;5126266;27;20035;-74
2022/11/04 06:11:26;;;;;;;2.30;0.77;;;9.20;99.90;;;;;;5143940;27;20066;-73
2022/11/04 06:13:54;;;;;;;3.50;0.47;;;9.20;99.90;;;;;;5130962;27;20114;-74
2022/11/04 06:16:20;;;;;;;5.55;0.60;;;9.20;99.90;;;;;;5129559;27;20540;-73
2022/11/04 06:18:45;;;;;;;2.95;0.38;;;9.20;99.90;;;;;;5141010;27;20050;-73
2022/11/04 06:21:14;;;;;;;2.22;0.32;;;9.20;99.90;;;;;;5121821;27;20488;-73
2022/11/04 06:23:41;;;;;;;4.63;0.73;;;9.20;99.90;;;;;;5108602;27;20489;-72
2022/11/04 06:26:07;;;;;;;1.88;0.47;;;9.20;99.90;;;;;;5102104;27;20039;-73
2022/11/04 06:28:33;;;;;;;6.03;1.42;;;9.20;99.90;;;;;;5127673;27;20038;-72
2022/11/04 06:31:01;;;;;;;8.90;0.55;;;9.20;99.90;;;;;;5128848;27;20043;-74
2022/11/04 06:33:28;;;;;;;5.00;0.40;;;9.20;99.90;;;;;;5128893;27;20545;-74
2022/11/04 06:36:02;;;;;;;5.88;0.60;;;10.30;99.90;;;;;;5108077;27;20043;-72
2022/11/04 06:38:32;;;;;;;3.00;0.77;;;10.30;99.90;;;;;;5122769;27;20050;-76
2022/11/04 06:40:58;;;;;;;7.70;0.93;;;9.10;99.90;;;;;;5145270;27;20059;-72
2022/11/04 06:43:24;;;;;;;7.22;0.90;;;9.10;99.90;;;;;;5149633;27;20146;-72
2022/11/04 06:45:57;;;;;;;3.25;0.70;;;9.10;99.90;;;;;;5121271;27;20034;-73
2022/11/04 06:48:23;;;;;;;2.90;0.40;;;9.10;99.90;;;;;;5147965;27;20060;-72
2022/11/04 06:50:48;;;;;;;2.47;0.82;;;9.10;99.90;;;;;;4429620;27;10000759;-71
2022/11/04 06:53:14;;;;;;;7.45;0.93;;;9.10;99.90;;;;;;5145117;27;20058;-72
2022/11/04 06:55:40;;;;;;;5.40;0.90;;;9.10;99.90;;;;;;5120774;27;20039;-73
2022/11/04 06:58:05;;;;;;;8.02;1.27;;;9.00;99.90;;;;;;5138410;27;20505;-73
2022/11/04 07:00:31;;;;;;;4.22;1.83;;;9.00;99.90;;;;;;5119397;27;20039;-72
2022/11/04 07:02:56;;;;;;;4.53;1.40;;;9.00;99.90;;;;;;5143495;27;20087;-72
2022/11/04 07:05:22;;;;;;;3.90;1.27;;;9.00;99.90;;;;;;5138553;27;20041;-72
2022/11/04 07:07:48;;;;;;;4.20;1.13;;;8.90;99.90;;;;;;5137501;27;20107;-72
2022/11/04 07:10:14;;;;;;;2.95;0.90;;;10.00;99.90;;;;;;5120147;27;20039;-72
2022/11/04 07:12:39;;;;;;;4.65;0.70;;;9.70;99.90;;;;;;5122386;27;20049;-72
2022/11/04 07:15:05;;;;;;;2.35;0.88;;;8.90;99.90;;;;;;5123023;27;20059;-71
2022/11/04 07:17:31;;;;;;;4.25;1.02;;;9.00;99.90;;;;;;5120430;27;20394;-72
2022/11/04 07:19:57;;;;;;;3.42;0.60;;;8.90;99.90;;;;;;5144161;27;20027;-72
2022/11/04 07:22:22;;;;;;;3.35;0.68;;;8.90;99.90;;;;;;5123954;27;20057;-71
2022/11/04 07:24:48;;;;;;;4.10;0.65;;;9.00;99.90;;;;;;5130340;27;20039;-72
2022/11/04 07:27:14;;;;;;;3.22;0.88;;;8.90;99.90;;;;;;5130135;27;20046;-73
2022/11/04 07:29:39;;;;;;;4.78;0.93;;;8.90;99.90;;;;;;5147531;27;20053;-72
2022/11/04 07:32:05;;;;;;;3.03;0.85;;;8.90;99.90;;;;;;5141182;27;20093;-73
2022/11/04 07:34:31;;;;;;;8.55;0.90;;;9.00;99.90;;;;;;5141888;27;20451;-73
2022/11/04 07:36:56;;;;;;;3.50;1.10;;;8.90;99.90;;;;;;5140726;27;20517;-73
2022/11/04 07:39:22;;;;;;;6.78;2.00;;;8.90;99.90;;;;;;5123765;27;20043;-73
2022/11/04 07:41:47;;;;;;;12.10;5.25;;;8.90;99.90;;;;;;5141991;27;20035;-73
2022/11/04 07:44:13;;;;;;;4.25;2.10;;;8.90;99.90;;;;;;5122697;27;20102;-72
2022/11/04 07:46:40;;;;;;;1.85;0.88;;;8.90;99.90;;;;;;5140434;27;20094;-73
2022/11/04 07:49:05;;;;;;;2.90;0.90;;;8.90;99.90;;;;;;5123691;27;20077;-72
2022/11/04 07:51:31;;;;;;;4.35;1.00;;;8.90;99.90;;;;;;5142579;27;20505;-73
2022/11/04 07:53:57;;;;;;;3.38;1.00;;;9.00;99.90;;;;;;5130814;27;20112;-72
2022/11/04 07:56:23;;;;;;;4.32;0.75;;;9.00;99.90;;;;;;5144423;27;20164;-74
2022/11/04 07:58:49;;;;;;;2.88;0.88;;;9.00;99.90;;;;;;5121474;27;20043;-74
2022/11/04 08:01:18;;;;;;;2.88;1.08;;;9.10;99.90;;;;;;5143210;27;20084;-71
2022/11/04 08:03:44;;;;;;;5.50;0.90;;;9.70;99.90;;;;;;5150117;27;20061;-70
2022/11/04 08:06:13;;;;;;;5.22;1.30;;;9.10;99.90;;;;;;5150388;27;20035;-71
2022/11/04 08:08:39;;;;;;;4.68;1.20;;;9.10;99.90;;;;;;5148655;27;20508;-71
2022/11/04 08:11:08;;;;;;;3.67;0.80;;;9.20;99.90;;;;;;5119436;27;20046;-71
2022/11/04 08:13:36;;;;;;;3.58;1.10;;;10.60;99.90;;;;;;5138645;27;20097;-71
2022/11/04 08:16:08;;;;;;;2.63;0.90;;;9.20;99.90;;;;;;5140281;27;20031;-72
2022/11/04 08:18:35;;;;;;;3.92;0.75;;;9.30;99.90;;;;;;5138542;27;20137;-71
2022/11/04 08:21:02;;;;;;;4.43;0.80;;;9.30;99.90;;;;;;5145610;27;20046;-73
2022/11/04 08:23:29;;;;;;;1.08;0.43;;;9.30;99.90;;;;;;5138512;27;20039;-72
2022/11/04 08:25:55;;;;;;;5.00;0.80;;;9.40;99.90;;;;;;5146099;27;20542;-71
2022/11/04 08:28:23;;;;;;;4.45;0.52;;;10.30;99.90;;;;;;5138786;27;20046;-71
2022/11/04 08:30:56;;;;;;;1.08;0.50;;;10.50;99.90;;;;;;5105801;27;20146;-70
2022/11/04 08:33:26;;;;;;;2.83;0.60;;;9.50;99.90;;;;;;5121983;27;20505;-71
2022/11/04 08:35:53;;;;;;;5.18;0.60;;;9.50;99.90;;;;;;5141166;27;20043;-71
2022/11/04 08:38:19;;;;;;;3.70;0.70;;;9.60;99.90;;;;;;5142042;27;20035;-70
2022/11/04 08:40:45;;;;;;;4.15;0.88;;;9.60;99.90;;;;;;5120818;27;20138;-73
2022/11/04 08:43:11;;;;;;;1.60;0.50;;;10.50;99.90;;;;;;5109350;28;20498;-74
2022/11/04 08:45:43;;;;;;;5.20;0.55;;;9.70;99.90;;;;;;5119229;27;20084;-72
2022/11/04 08:48:08;;;;;;;3.72;0.43;;;9.80;99.90;;;;;;5142149;27;20038;-71
2022/11/04 08:50:34;;;;;;;2.38;0.50;;;9.80;99.90;;;;;;5139762;27;20372;-71
2022/11/04 08:53:00;;;;;;;4.32;0.80;;;9.80;99.90;;;;;;5122861;27;20038;-71
2022/11/04 08:55:31;;;;;;;4.53;1.08;;;9.80;99.90;;;;;;5123222;27;20126;-72
2022/11/04 08:57:57;;;;;;;1.17;0.43;;;9.80;99.90;;;;;;5122467;27;20463;-71
2022/11/04 09:00:23;;;;;;;2.38;0.50;;;9.90;99.90;;;;;;5148322;27;20027;-77
2022/11/04 09:02:49;;;;;;;4.03;0.50;;;9.90;99.90;;;;;;5121587;27;20101;-74
2022/11/04 09:05:14;;;;;;;3.17;0.73;;;10.00;99.90;;;;;;5124763;27;20493;-73
2022/11/04 09:07:41;;;;;;;4.40;0.77;;;10.00;99.90;;;;;;5122121;27;20134;-73
2022/11/04 09:10:08;;;;;;;3.45;0.93;;;10.70;99.90;;;;;;5106509;27;20402;-73
2022/11/04 09:12:34;;;;;;;2.97;0.52;;;10.00;99.90;;;;;;5147383;27;20396;-73
2022/11/04 09:15:01;;;;;;;2.35;0.73;;;10.50;99.90;;;;;;5137780;27;20130;-71
2022/11/04 09:17:27;;;;;;;3.15;0.47;;;10.70;99.90;;;;;;5125736;27;20050;-72
2022/11/04 09:19:52;;;;;;;5.25;0.60;;;10.10;99.90;;;;;;5150581;27;20031;-70
2022/11/04 09:22:18;;;;;;;3.15;0.60;;;10.10;99.90;;;;;;5130904;27;20050;-70
2022/11/04 09:24:43;;;;;;;2.38;0.68;;;10.20;99.90;;;;;;5114459;27;20375;-70
2022/11/04 09:27:09;;;;;;;5.05;0.70;;;10.20;99.90;;;;;;5150054;27;20050;-72
2022/11/04 09:29:35;;;;;;;3.35;0.90;;;11.40;99.90;;;;;;5131132;27;20061;-71
2022/11/04 09:32:02;;;;;;;3.13;0.65;;;10.30;99.90;;;;;;5149938;27;20057;-71
2022/11/04 09:34:28;;;;;;;3.13;0.50;;;10.30;99.90;;;;;;5126851;27;20118;-72
2022/11/04 09:36:55;;;;;;;3.97;0.70;;;11.30;99.90;;;;;;5131177;27;20118;-72
2022/11/04 09:39:22;;;;;;;2.38;0.90;;;11.10;99.90;;;;;;5147314;27;20431;-72
2022/11/04 09:41:57;;;;;;;3.13;0.40;;;10.40;99.90;;;;;;5129780;27;20091;-72
2022/11/04 09:44:57;;;;;;;4.75;0.50;;;10.50;99.90;;;;;;5114326;27;20049;-72
2022/11/04 09:47:24;;;;;;;5.13;0.98;;;10.50;99.90;;;;;;5148256;27;20416;-72
2022/11/04 09:49:54;;;;;;;5.88;0.60;;;10.60;99.90;;;;;;5143414;27;20047;-72
2022/11/04 09:52:24;;;;;;;5.20;0.70;;;10.60;99.90;;;;;;5126856;27;20034;-72
2022/11/04 09:55:11;;;;;;;3.60;0.60;;;10.70;99.90;;;;;;5146964;27;20130;-73
2022/11/04 09:57:37;;;;;;;1.35;0.57;;;10.80;99.90;;;;;;5127047;27;20047;-72
2022/11/04 10:00:04;;;;;;;5.28;1.35;;;10.80;99.90;;;;;;5143257;27;20122;-72
2022/11/04 10:02:48;;;;;;;6.68;0.80;;;10.80;99.90;;;;;;5144941;27;20106;-72
2022/11/04 10:05:38;;;;;;;2.75;0.57;;;10.90;99.90;;;;;;5120815;27;20058;-71
2022/11/04 10:08:23;;;;;;;2.92;0.50;;;10.90;99.90;;;;;;5148969;27;20047;-72
2022/11/04 10:11:11;;;;;;;3.92;0.85;;;11.00;99.90;;;;;;5141619;27;20042;-72
2022/11/04 10:14:07;;;;;;;4.72;0.77;;;11.00;99.90;;;;;;5145202;27;20047;-70
2022/11/04 10:16:54;;;;;;;3.80;0.65;;;11.10;99.90;;;;;;5142167;27;20047;-72
2022/11/04 10:19:22;;;;;;;4.35;0.85;;;11.20;99.90;;;;;;5143659;27;20035;-70
2022/11/04 10:22:10;;;;;;;6.20;0.80;;;11.20;99.90;;;;;;5144202;27;20042;-70
2022/11/04 10:24:47;;;;;;;2.10;0.45;;;11.30;99.90;;;;;;5127173;27;20088;-71
2022/11/04 10:27:18;;;;;;;4.65;0.65;;;11.30;99.90;;;;;;5122240;27;20054;-71
2022/11/04 10:29:49;;;;;;;7.60;0.70;;;12.20;99.90;;;;;;5148388;27;20039;-71
2022/11/04 10:32:37;;;;;;;6.20;1.30;;;11.40;99.90;;;;;;5121693;27;20122;-71
2022/11/04 10:35:20;;;;;;;4.13;0.75;;;11.50;99.90;;;;;;5130643;27;20047;-71
2022/11/04 10:37:51;;;;;;;5.20;0.70;;;11.50;99.90;;;;;;5136992;27;20046;-72
2022/11/04 10:40:27;;;;;;;5.05;0.90;;;11.60;99.90;;;;;;5136650;27;20027;-74
2022/11/04 10:42:56;;;;;;;3.45;0.50;;;11.70;99.90;;;;;;5140389;27;20050;-72
2022/11/04 10:45:33;;;;;;;5.20;0.70;;;11.70;99.90;;;;;;5146210;27;20039;-70
2022/11/04 10:48:04;;;;;;;7.45;0.50;;;11.70;99.90;;;;;;5133780;27;20117;-70
2022/11/04 10:50:36;;;;;;;2.95;0.60;;;11.80;99.90;;;;;;5149889;27;20045;-70
2022/11/04 10:53:18;;;;;;;4.57;0.57;;;11.80;99.90;;;;;;5116433;27;20045;-71
2022/11/04 10:56:00;;;;;;;5.80;1.15;;;11.90;99.90;;;;;;5152423;27;20715;-71
2022/11/04 10:58:35;;;;;;;6.38;0.90;;;11.90;99.90;;;;;;5150169;27;20078;-71
2022/11/04 11:01:29;;;;;;;7.05;0.95;;;12.00;99.90;;;;;;5146886;27;20482;-74
2022/11/04 11:03:55;;;;;;;5.82;0.82;;;12.10;99.90;;;;;;4786407;27;10001664;-73
2022/11/04 11:06:26;;;;;;;6.82;1.20;;;12.10;99.90;;;;;;5143806;27;20387;-73
2022/11/04 11:08:55;;;;;;;2.40;0.45;;;12.40;99.90;;;;;;5102720;27;20546;-73
2022/11/04 11:11:44;;;;;;;3.33;0.50;;;12.90;99.90;;;;;;5136692;27;20050;-74
2022/11/04 11:14:18;;;;;;;4.53;0.73;;;12.00;99.90;;;;;;5133105;27;20074;-73
2022/11/04 11:16:44;;;;;;;7.75;1.33;;;12.00;99.90;;;;;;5142073;27;20047;-73
2022/11/04 11:19:10;;;;;;;8.80;0.73;;;12.00;99.90;;;;;;5139768;27;20045;-73
2022/11/04 11:21:50;;;;;;;5.00;0.52;;;12.00;99.90;;;;;;5125501;27;20100;-72
2022/11/04 11:24:25;;;;;;;3.63;0.55;;;12.00;99.90;;;;;;5140846;27;20393;-72
2022/11/04 11:26:54;;;;;;;7.25;0.82;;;11.90;99.90;;;;;;5120438;27;20083;-71
2022/11/04 11:29:39;;;;;;;5.05;0.60;;;11.90;99.90;;;;;;5141846;27;20034;-73
2022/11/04 11:32:19;;;;;;;5.18;0.90;;;11.80;99.90;;;;;;5139422;27;20569;-71
2022/11/04 11:34:47;;;;;;;7.15;1.15;;;11.70;99.90;;;;;;5140690;27;20564;-72
2022/11/04 11:37:23;;;;;;;4.15;0.60;;;11.80;99.90;;;;;;5140277;27;20050;-73
2022/11/04 11:39:49;;;;;;;3.55;0.52;;;11.80;99.90;;;;;;5140917;27;20051;-72
2022/11/04 11:42:18;;;;;;;3.88;0.40;;;11.70;99.90;;;;;;5138459;27;20482;-73
2022/11/04 11:44:53;;;;;;;3.38;0.70;;;12.20;99.90;;;;;;5141894;27;20137;-74
2022/11/04 11:47:27;;;;;;;5.70;0.73;;;11.90;99.90;;;;;;5137426;27;20066;-73
2022/11/04 11:50:04;;;;;;;4.35;0.38;;;11.50;99.90;;;;;;5143624;27;20051;-71
2022/11/04 11:52:38;;;;;;;5.18;0.38;;;11.50;99.90;;;;;;5134936;27;20038;-73
2022/11/04 11:55:14;;;;;;;1.88;0.20;;;11.60;99.90;;;;;;5114323;27;20043;-73
2022/11/04 11:57:49;;;;;;;2.92;0.50;;;11.50;99.90;;;;;;5138972;27;20043;-70
2022/11/04 12:00:17;;;;;;;4.22;0.80;;;11.40;99.90;;;;;;5128504;27;20130;-71
2022/11/04 12:02:46;;;;;;;2.50;0.60;;;11.30;99.90;;;;;;5141842;27;20103;-72
2022/11/04 12:05:13;;;;;;;3.40;0.73;;;12.20;99.90;;;;;;5124312;27;20218;-71
2022/11/04 12:07:43;;;;;;;4.03;0.40;;;11.20;99.90;;;;;;5141654;27;20030;-71
2022/11/04 12:10:19;;;;;;;5.05;0.40;;;11.60;99.90;;;;;;5114978;27;20059;-72
2022/11/04 12:12:54;;;;;;;2.70;0.40;;;10.90;99.90;;;;;;5138715;27;20042;-71
2022/11/04 12:15:37;;;;;;;1.88;0.30;;;10.80;99.90;;;;;;5148254;27;20038;-71
2022/11/04 12:18:32;;;;;;;3.03;0.35;;;10.80;99.90;;;;;;5130024;27;20080;-71
2022/11/04 12:21:20;;;;;;;2.67;0.35;;;10.80;99.90;;;;;;5067873;27;20054;-71
2022/11/04 12:24:00;;;;;;;2.08;0.28;;;10.70;99.90;;;;;;5139888;27;20121;-71
2022/11/04 12:26:37;;;;;;;2.45;0.40;;;10.80;99.90;;;;;;5120055;27;20309;-70
2022/11/04 12:29:11;;;;;;;2.72;0.63;;;10.80;99.90;;;;;;5136805;27;20402;-70
2022/11/04 12:31:47;;;;;;;6.20;0.50;;;10.80;99.90;;;;;;5133936;27;20043;-70
2022/11/04 12:34:31;;;;;;;2.30;0.50;;;10.80;99.90;;;;;;5120172;27;20478;-71
2022/11/04 12:37:26;;;;;;;2.33;0.50;;;10.90;99.90;;;;;;5139074;27;20138;-71
2022/11/04 12:40:01;;;;;;;;;;;10.90;99.90;;;;;;5106059;27;20054;-72
2022/11/04 12:42:29;;;;;;;3.20;0.80;;;10.90;99.90;;;;;;5094660;27;19923;-71
2022/11/04 12:45:06;;;;;;;3.58;0.93;;;11.00;99.90;;;;;;5121514;27;20050;-71
2022/11/04 12:47:36;;;;;;;5.10;0.75;;;11.00;99.90;;;;;;5114835;27;20502;-70
2022/11/04 12:50:10;;;;;;;8.50;1.48;;;11.00;99.90;;;;;;5103359;27;20131;-71
2022/11/04 12:53:03;;;;;;;4.57;0.63;;;11.00;99.90;;;;;;5139502;27;20047;-70
2022/11/04 12:55:33;;;;;;;5.28;0.73;;;11.10;99.90;;;;;;5136789;27;20046;-70
2022/11/04 12:58:23;;;;;;;4.53;1.20;;;11.30;99.90;;;;;;5124474;27;20398;-70
2022/11/04 13:00:57;;;;;;;3.97;0.95;;;11.50;99.90;;;;;;5122096;27;20371;-70
2022/11/04 13:03:48;;;;;;;4.00;0.60;;;11.60;99.90;;;;;;5138284;27;20123;-70
2022/11/04 13:06:44;;;;;;;4.72;0.65;;;11.80;99.90;;;;;;5137174;27;20479;-70
2022/11/04 13:09:21;;;;;;;3.38;0.70;;;12.00;99.90;;;;;;5138685;27;20042;-70
2022/11/04 13:12:05;;;;;;;6.15;0.95;;;12.10;99.90;;;;;;5120637;27;20046;-73
2022/11/04 13:14:56;;;;;;;4.10;1.08;;;12.30;99.90;;;;;;5103402;27;20082;-71
2022/11/04 13:17:28;;;;;;;7.95;0.70;;;12.40;99.90;;;;;;5121398;27;20595;-71
2022/11/04 13:20:05;;;;;;;7.28;0.80;;;12.50;99.90;;;;;;5139318;27;20117;-73
2022/11/04 13:22:35;;;;;;;6.53;0.93;;;12.50;99.90;;;;;;5138821;27;20043;-73
2022/11/04 13:25:13;;;;;;;2.60;0.88;;;12.50;99.90;;;;;;5108980;27;20471;-73
2022/11/04 13:27:46;;;;;;;2.85;0.73;;;12.60;99.90;;;;;;5110900;27;20044;-73
2022/11/04 13:30:24;;;;;;;3.00;0.55;;;12.60;99.90;;;;;;5150859;27;20615;-73
2022/11/04 13:33:12;;;;;;;4.07;0.80;;;12.70;99.90;;;;;;5095093;27;20414;-73
2022/11/04 13:36:22;;;;;;;7.45;0.80;;;12.70;99.90;;;;;;5129587;27;20051;-74
2022/11/04 13:39:03;;;;;;;7.15;1.02;;;12.70;99.90;;;;;;5119577;27;20070;-74
2022/11/04 13:41:42;;;;;;;7.97;0.80;;;12.80;99.90;;;;;;5127447;27;20039;-74
2022/11/04 13:44:24;;;;;;;3.30;0.70;;;12.80;99.90;;;;;;5151068;27;20043;-74
2022/11/04 13:46:53;;;;;;;4.07;0.70;;;12.70;99.90;;;;;;5149660;27;20057;-74